Time;durP1;ratioP1;P1;durP2;ratioP2;P2;SDS_P1;SDS_P2;PMS_P1;PMS_P2;Temp;Humidity;BMP_temperature;BMP_pressure;BME280_temperature;BME280_humidity;BME280_pressure;Samples;Min_cycle;Max_cycle;Signal;HPM_P1;HPM_P2
2021/12/01 00:06:03;;;;;;;2.00;0.60;;;;;;;;;;4847558;29;20163;-82
2021/12/01 00:37:26;;;;;;;0.90;0.30;;;;;;;;;;4832184;29;20066;-82
2021/12/01 00:39:57;;;;;;;1.05;0.30;;;;;;;;;;4812285;29;20047;-82
2021/12/01 00:42:28;;;;;;;0.93;0.20;;;;;;;;;;4812361;29;20042;-82
2021/12/01 00:49:16;;;;;;;0.85;0.22;;;;;;;;;;4872920;29;20048;-83
2021/12/01 01:07:09;;;;;;;0.90;0.30;;;;;;;;;;4907665;29;20040;-80
2021/12/01 01:35:06;;;;;;;13.60;0.67;;;;;;;;;;4864779;29;20549;-82
2021/12/01 02:22:46;;;;;;;1.50;0.60;;;;;;;;;;4803662;29;20038;-82
2021/12/01 02:25:46;;;;;;;1.25;0.40;;;;;;;;;;4838718;29;20083;-82
2021/12/01 02:38:29;;;;;;;0.88;0.30;;;;;;;;;;4902576;29;20252;-82
2021/12/01 03:04:53;;;;;;;1.85;0.40;;;;;;;;;;4903735;29;20045;-83
2021/12/01 04:01:11;;;;;;;1.48;0.38;;;;;;;;;;4944012;28;20126;-79
2021/12/01 04:10:03;;;;;;;1.38;0.38;;;;;;;;;;4926916;28;20049;-79
2021/12/01 04:18:39;;;;;;;1.37;0.40;;;;;;;;;;4927037;29;20531;-79
2021/12/01 04:21:38;;;;;;;1.00;0.30;;;;;;;;;;4940126;28;20047;-80
2021/12/01 04:27:16;;;;;;;0.90;0.22;;;;;;;;;;4925877;28;20078;-81
2021/12/01 04:29:46;;;;;;;1.33;0.60;;;;;;;;;;4925809;28;20058;-79
2021/12/01 04:32:15;;;;;;;1.30;0.40;;;;;;;;;;4940473;28;20071;-79
2021/12/01 04:34:45;;;;;;;0.75;0.28;;;;;;;;;;4943804;28;20058;-79
2021/12/01 04:37:15;;;;;;;0.90;0.40;;;;;;;;;;4930338;28;20054;-79
2021/12/01 04:39:44;;;;;;;1.23;0.40;;;;;;;;;;4945200;28;20090;-79
2021/12/01 04:42:14;;;;;;;1.92;0.47;;;;;;;;;;4944506;28;20237;-79
2021/12/01 04:44:43;;;;;;;1.03;0.37;;;;;;;;;;4942427;29;20051;-79
2021/12/01 04:47:17;;;;;;;1.95;0.43;;;;;;;;;;4939052;29;20074;-79
2021/12/01 04:49:46;;;;;;;0.95;0.20;;;;;;;;;;4945444;29;20055;-79
2021/12/01 04:52:18;;;;;;;1.35;0.30;;;;;;;;;;4944448;29;20105;-79
2021/12/01 04:54:48;;;;;;;1.10;0.30;;;;;;;;;;4943597;29;20051;-80
2021/12/01 04:57:18;;;;;;;2.03;0.43;;;;;;;;;;4938106;29;20055;-79
2021/12/01 04:59:48;;;;;;;1.73;0.45;;;;;;;;;;4939175;29;20056;-80
2021/12/01 05:02:18;;;;;;;1.40;0.43;;;;;;;;;;4935652;29;20384;-79
2021/12/01 05:04:48;;;;;;;1.77;0.50;;;;;;;;;;4932651;29;20051;-79
2021/12/01 05:07:17;;;;;;;1.45;0.40;;;;;;;;;;4935796;29;20062;-79
2021/12/01 05:09:47;;;;;;;1.23;0.27;;;;;;;;;;4922860;29;20047;-79
2021/12/01 05:12:17;;;;;;;1.63;0.40;;;;;;;;;;4924431;29;20060;-79
2021/12/01 05:14:49;;;;;;;3.25;1.35;;;;;;;;;;4935124;29;20051;-79
2021/12/01 05:17:20;;;;;;;3.75;1.40;;;;;;;;;;4933172;29;20044;-79
2021/12/01 05:19:49;;;;;;;2.83;1.30;;;;;;;;;;4913806;29;20075;-79
2021/12/01 05:22:18;;;;;;;3.70;1.17;;;;;;;;;;4934877;29;20039;-79
2021/12/01 05:24:47;;;;;;;2.50;0.80;;;;;;;;;;4935315;29;20069;-79
2021/12/01 05:27:18;;;;;;;2.75;1.10;;;;;;;;;;4936844;29;20048;-79
2021/12/01 05:29:50;;;;;;;2.42;0.80;;;;;;;;;;4936697;29;20096;-79
2021/12/01 05:32:20;;;;;;;3.15;0.70;;;;;;;;;;4935038;29;20088;-79
2021/12/01 05:34:49;;;;;;;2.40;0.87;;;;;;;;;;4932990;29;20069;-79
2021/12/01 05:37:18;;;;;;;3.55;0.50;;;;;;;;;;4940732;29;20508;-79
2021/12/01 05:39:47;;;;;;;2.28;0.70;;;;;;;;;;4937227;29;20089;-79
2021/12/01 05:42:17;;;;;;;2.05;0.68;;;;;;;;;;4926478;29;20136;-80
2021/12/01 05:44:46;;;;;;;1.67;0.60;;;;;;;;;;4936470;29;20086;-80
2021/12/01 05:47:18;;;;;;;1.77;0.50;;;;;;;;;;4938240;29;20064;-76
2021/12/01 05:49:47;;;;;;;1.42;0.60;;;;;;;;;;4918085;29;20121;-76
2021/12/01 05:52:18;;;;;;;2.95;0.85;;;;;;;;;;4937907;29;20547;-76
2021/12/01 05:54:50;;;;;;;1.95;0.50;;;;;;;;;;4919452;29;20055;-76
2021/12/01 05:57:46;;;;;;;2.70;0.57;;;;;;;;;;4921557;29;20706;-76
2021/12/01 06:00:16;;;;;;;1.53;0.50;;;;;;;;;;4939513;29;20120;-76
2021/12/01 06:02:49;;;;;;;2.70;0.85;;;;;;;;;;4923509;29;20051;-76
2021/12/01 06:05:19;;;;;;;2.28;0.80;;;;;;;;;;4924789;29;20103;-76
2021/12/01 06:07:48;;;;;;;2.58;0.57;;;;;;;;;;4934118;29;20439;-76
2021/12/01 06:10:17;;;;;;;2.10;0.60;;;;;;;;;;4945052;28;20058;-81
2021/12/01 06:12:46;;;;;;;2.70;0.63;;;;;;;;;;4938157;29;20110;-70
2021/12/01 06:15:19;;;;;;;1.40;0.50;;;;;;;;;;4936596;29;20044;-70
2021/12/01 06:17:48;;;;;;;2.03;0.70;;;;;;;;;;4918180;29;20070;-74
2021/12/01 06:20:18;;;;;;;1.95;0.68;;;;;;;;;;4931831;29;20496;-70
2021/12/01 06:22:47;;;;;;;2.10;0.60;;;;;;;;;;4929653;29;20060;-70
2021/12/01 06:25:16;;;;;;;4.90;0.50;;;;;;;;;;4933322;29;20081;-70
2021/12/01 06:27:45;;;;;;;3.08;0.80;;;;;;;;;;4934648;29;20052;-70
2021/12/01 06:30:14;;;;;;;1.90;0.50;;;;;;;;;;4934014;29;20396;-70
2021/12/01 06:32:44;;;;;;;1.55;0.60;;;;;;;;;;4955063;28;20414;-71
2021/12/01 06:35:13;;;;;;;2.90;0.47;;;;;;;;;;4934491;29;20103;-70
2021/12/01 06:37:42;;;;;;;2.50;0.40;;;;;;;;;;4946052;29;20405;-70
2021/12/01 06:40:11;;;;;;;1.95;0.43;;;;;;;;;;4940982;29;20061;-70
2021/12/01 06:42:40;;;;;;;2.10;0.45;;;;;;;;;;4938011;29;20534;-71
2021/12/01 06:45:11;;;;;;;1.20;0.30;;;;;;;;;;4957981;28;20371;-70
2021/12/01 06:47:41;;;;;;;1.35;0.40;;;;;;;;;;4941023;29;20498;-70
2021/12/01 06:50:12;;;;;;;1.37;0.53;;;;;;;;;;4935883;29;20428;-70
2021/12/01 06:52:41;;;;;;;1.20;0.40;;;;;;;;;;4935236;29;20047;-70
2021/12/01 06:55:11;;;;;;;2.95;0.77;;;;;;;;;;4935497;29;20051;-70
2021/12/01 06:57:40;;;;;;;2.80;0.90;;;;;;;;;;4925644;29;20083;-70
2021/12/01 07:00:12;;;;;;;1.70;0.50;;;;;;;;;;4935005;29;20064;-70
2021/12/01 07:02:42;;;;;;;2.90;0.30;;;;;;;;;;4932659;29;20052;-70
2021/12/01 07:05:37;;;;;;;1.60;0.63;;;;;;;;;;4925429;29;20134;-71
2021/12/01 07:08:08;;;;;;;1.23;0.40;;;;;;;;;;4935769;29;20043;-70
2021/12/01 07:10:37;;;;;;;2.10;0.75;;;;;;;;;;4919699;29;20051;-71
2021/12/01 07:13:06;;;;;;;1.42;0.45;;;;;;;;;;4935305;29;20084;-70
2021/12/01 07:15:34;;;;;;;1.70;0.70;;;;;;;;;;4928882;29;20157;-71
2021/12/01 07:18:04;;;;;;;2.55;0.55;;;;;;;;;;4931144;29;20482;-70
2021/12/01 07:20:33;;;;;;;2.03;0.57;;;;;;;;;;4935053;29;20139;-70
2021/12/01 07:23:03;;;;;;;2.65;0.70;;;;;;;;;;4919524;29;20144;-71
2021/12/01 07:25:39;;;;;;;1.70;0.70;;;;;;;;;;4920382;29;20067;-70
2021/12/01 07:28:07;;;;;;;1.03;0.30;;;;;;;;;;4935090;29;20051;-70
2021/12/01 07:30:40;;;;;;;1.35;0.55;;;;;;;;;;4934999;29;20517;-70
2021/12/01 07:33:10;;;;;;;1.73;0.30;;;;;;;;;;4933604;29;20063;-70
2021/12/01 07:35:40;;;;;;;4.80;0.40;;;;;;;;;;4919266;29;20087;-71
2021/12/01 07:38:08;;;;;;;1.85;0.35;;;;;;;;;;4934826;29;20139;-70
2021/12/01 07:40:38;;;;;;;1.10;0.33;;;;;;;;;;4935012;29;20047;-70
2021/12/01 07:43:08;;;;;;;1.27;0.50;;;;;;;;;;4920594;29;20106;-70
2021/12/01 07:45:42;;;;;;;5.28;0.77;;;;;;;;;;4935150;29;20078;-70
2021/12/01 07:48:12;;;;;;;0.90;0.20;;;;;;;;;;4934504;29;20059;-70
2021/12/01 07:50:42;;;;;;;0.98;0.50;;;;;;;;;;4916014;29;20438;-70
2021/12/01 07:53:11;;;;;;;1.37;0.37;;;;;;;;;;4932206;29;20043;-70
2021/12/01 07:55:42;;;;;;;4.80;0.52;;;;;;;;;;4934322;29;20058;-70
2021/12/01 07:58:11;;;;;;;1.38;0.60;;;;;;;;;;4929771;29;20135;-70
2021/12/01 08:00:40;;;;;;;1.30;0.30;;;;;;;;;;4934214;29;20063;-71
2021/12/01 08:03:10;;;;;;;1.95;0.40;;;;;;;;;;4934645;29;20463;-71
2021/12/01 08:05:39;;;;;;;1.30;0.40;;;;;;;;;;4923199;29;20166;-70
2021/12/01 08:08:10;;;;;;;2.83;0.32;;;;;;;;;;4918627;29;20367;-71
2021/12/01 08:10:40;;;;;;;5.57;0.50;;;;;;;;;;4934450;29;20051;-71
2021/12/01 08:13:10;;;;;;;1.88;0.20;;;;;;;;;;4916946;29;20127;-71
2021/12/01 08:15:50;;;;;;;0.98;0.30;;;;;;;;;;4935213;29;20044;-70
2021/12/01 08:21:16;;;;;;;2.80;0.60;;;;;;;;;;4934191;29;20410;-71
2021/12/01 08:23:58;;;;;;;1.40;0.40;;;;;;;;;;4929833;29;20083;-70
2021/12/01 08:26:27;;;;;;;2.17;0.35;;;;;;;;;;4918433;29;20134;-70
2021/12/01 08:28:57;;;;;;;2.55;0.47;;;;;;;;;;4934080;29;20052;-70
2021/12/01 08:31:26;;;;;;;1.30;0.50;;;;;;;;;;4918458;29;20111;-69
2021/12/01 08:33:55;;;;;;;2.03;0.40;;;;;;;;;;4933346;29;20043;-70
2021/12/01 08:36:24;;;;;;;1.30;0.20;;;;;;;;;;4917454;29;20131;-70
2021/12/01 08:38:53;;;;;;;1.90;0.82;;;;;;;;;;4934680;29;20047;-70
2021/12/01 08:41:21;;;;;;;0.85;0.20;;;;;;;;;;4936268;29;20044;-71
2021/12/01 08:43:50;;;;;;;0.70;0.20;;;;;;;;;;4937307;29;20052;-71
2021/12/01 08:46:21;;;;;;;1.20;0.47;;;;;;;;;;4934602;29;20048;-71
2021/12/01 08:48:50;;;;;;;4.15;0.60;;;;;;;;;;4918199;29;20577;-70
2021/12/01 08:51:19;;;;;;;1.23;0.30;;;;;;;;;;4935180;29;20099;-70
2021/12/01 08:53:48;;;;;;;1.85;0.43;;;;;;;;;;4916919;29;20060;-72
2021/12/01 08:56:17;;;;;;;1.13;0.33;;;;;;;;;;4916941;29;20079;-70
2021/12/01 08:58:46;;;;;;;1.83;1.20;;;;;;;;;;4933116;29;20114;-70
2021/12/01 09:01:15;;;;;;;0.60;0.20;;;;;;;;;;4919770;29;20455;-70
2021/12/01 09:03:45;;;;;;;1.85;0.47;;;;;;;;;;4931510;29;20079;-70
2021/12/01 09:06:14;;;;;;;1.30;0.40;;;;;;;;;;4924053;29;20146;-70
2021/12/01 09:08:44;;;;;;;0.90;0.20;;;;;;;;;;4932133;29;20043;-70
2021/12/01 09:11:12;;;;;;;1.13;0.30;;;;;;;;;;4932994;29;20056;-70
2021/12/01 09:13:41;;;;;;;1.63;0.30;;;;;;;;;;4942342;28;20048;-70
2021/12/01 09:16:48;;;;;;;1.25;0.35;;;;;;;;;;4931895;29;20123;-70
2021/12/01 09:19:19;;;;;;;1.60;0.32;;;;;;;;;;4918218;29;20043;-72
2021/12/01 09:21:49;;;;;;;1.03;0.20;;;;;;;;;;4937945;29;20124;-70
2021/12/01 09:24:20;;;;;;;1.63;0.45;;;;;;;;;;4932989;29;20054;-70
2021/12/01 09:26:50;;;;;;;1.55;0.30;;;;;;;;;;4912413;29;20130;-71
2021/12/01 09:29:19;;;;;;;1.42;0.20;;;;;;;;;;4934368;29;20074;-70
2021/12/01 09:31:48;;;;;;;0.70;0.17;;;;;;;;;;4932308;29;20404;-70
2021/12/01 09:34:16;;;;;;;1.00;0.30;;;;;;;;;;4927061;29;20075;-71
2021/12/01 09:36:46;;;;;;;1.25;0.30;;;;;;;;;;4931146;29;20043;-70
2021/12/01 09:39:15;;;;;;;2.17;0.30;;;;;;;;;;4936598;29;20107;-75
2021/12/01 09:41:44;;;;;;;2.13;0.50;;;;;;;;;;4916704;29;20058;-70
2021/12/01 09:44:16;;;;;;;1.75;0.40;;;;;;;;;;4916388;29;20151;-70
2021/12/01 09:46:46;;;;;;;1.60;0.33;;;;;;;;;;4932918;29;20126;-70
2021/12/01 09:49:14;;;;;;;0.88;0.20;;;;;;;;;;4933686;29;20078;-70
2021/12/01 09:51:43;;;;;;;1.40;0.30;;;;;;;;;;4931823;29;20063;-70
2021/12/01 09:54:14;;;;;;;1.45;0.38;;;;;;;;;;4921686;29;20039;-70
2021/12/01 09:56:43;;;;;;;3.33;0.50;;;;;;;;;;4935990;29;20066;-70
2021/12/01 09:59:12;;;;;;;2.17;0.47;;;;;;;;;;4918165;29;20048;-69
2021/12/01 10:01:41;;;;;;;1.33;0.38;;;;;;;;;;4936157;29;20048;-70
2021/12/01 10:04:11;;;;;;;1.55;0.47;;;;;;;;;;4932606;29;20512;-72
2021/12/01 10:06:40;;;;;;;2.63;0.50;;;;;;;;;;4926178;29;20052;-74
2021/12/01 10:09:10;;;;;;;1.23;0.30;;;;;;;;;;4930875;29;20056;-70
2021/12/01 10:11:42;;;;;;;2.30;0.60;;;;;;;;;;4932352;29;20055;-70
2021/12/01 10:14:16;;;;;;;1.75;0.30;;;;;;;;;;4937464;29;20047;-72
2021/12/01 10:16:46;;;;;;;1.25;0.30;;;;;;;;;;4931335;29;20062;-69
2021/12/01 10:19:16;;;;;;;1.02;0.22;;;;;;;;;;4929762;29;20521;-69
2021/12/01 10:21:47;;;;;;;0.70;0.20;;;;;;;;;;4914345;29;20462;-70
2021/12/01 10:24:17;;;;;;;1.40;0.20;;;;;;;;;;4915235;29;20043;-70
2021/12/01 10:26:47;;;;;;;7.07;0.80;;;;;;;;;;4929305;29;20079;-70
2021/12/01 10:29:18;;;;;;;1.63;0.40;;;;;;;;;;4932601;29;20048;-70
2021/12/01 10:31:49;;;;;;;4.53;0.63;;;;;;;;;;4932145;29;20071;-70
2021/12/01 10:34:20;;;;;;;2.08;0.40;;;;;;;;;;4915944;29;20058;-71
2021/12/01 10:36:49;;;;;;;0.90;0.30;;;;;;;;;;4933274;29;20048;-70
2021/12/01 10:39:18;;;;;;;1.98;0.32;;;;;;;;;;4919763;29;20054;-70
2021/12/01 10:41:48;;;;;;;1.40;0.30;;;;;;;;;;4935267;29;20090;-70
2021/12/01 10:44:18;;;;;;;1.98;0.50;;;;;;;;;;4935515;29;20083;-70
2021/12/01 10:46:49;;;;;;;1.65;0.30;;;;;;;;;;4935662;29;20070;-70
2021/12/01 10:49:32;;;;;;;1.33;0.30;;;;;;;;;;4936577;29;20128;-74
2021/12/01 10:52:01;;;;;;;2.70;0.20;;;;;;;;;;4936466;29;20059;-71
2021/12/01 10:54:30;;;;;;;0.82;0.20;;;;;;;;;;4936510;29;20550;-71
2021/12/01 10:57:19;;;;;;;1.38;0.30;;;;;;;;;;4934676;29;20069;-71
2021/12/01 10:59:49;;;;;;;1.92;0.60;;;;;;;;;;4919401;29;20558;-70
2021/12/01 11:02:22;;;;;;;6.00;0.73;;;;;;;;;;4935191;29;20047;-71
2021/12/01 11:04:54;;;;;;;2.60;0.50;;;;;;;;;;4935627;29;20500;-71
2021/12/01 11:07:28;;;;;;;1.25;0.30;;;;;;;;;;4910952;29;20438;-74
2021/12/01 11:10:10;;;;;;;1.35;0.30;;;;;;;;;;4927691;29;20054;-72
2021/12/01 11:12:41;;;;;;;1.60;0.50;;;;;;;;;;4921691;29;20063;-71
2021/12/01 11:15:26;;;;;;;2.00;0.50;;;;;;;;;;4933348;29;20044;-71
2021/12/01 11:17:56;;;;;;;0.90;0.20;;;;;;;;;;4925731;29;20142;-71
2021/12/01 11:20:44;;;;;;;2.67;0.50;;;;;;;;;;4933162;29;20067;-72
2021/12/01 11:23:17;;;;;;;1.30;0.40;;;;;;;;;;4931922;29;20051;-71
2021/12/01 11:25:48;;;;;;;2.55;0.40;;;;;;;;;;4912356;29;20086;-71
2021/12/01 11:28:20;;;;;;;1.80;0.30;;;;;;;;;;4930364;29;20052;-71
2021/12/01 11:30:50;;;;;;;2.00;0.40;;;;;;;;;;4927575;29;20150;-72
2021/12/01 11:33:20;;;;;;;1.65;0.50;;;;;;;;;;4916653;29;20172;-71
2021/12/01 11:35:54;;;;;;;2.97;0.73;;;;;;;;;;4946825;28;20437;-71
2021/12/01 11:38:23;;;;;;;2.15;0.30;;;;;;;;;;4943130;28;20063;-71
2021/12/01 11:40:52;;;;;;;2.20;0.60;;;;;;;;;;4916563;29;20426;-71
2021/12/01 11:43:24;;;;;;;2.35;0.30;;;;;;;;;;4934205;29;20058;-71
2021/12/01 11:45:53;;;;;;;2.05;0.50;;;;;;;;;;4933426;29;20055;-72
2021/12/01 11:48:24;;;;;;;1.77;0.38;;;;;;;;;;4931507;29;20086;-71
2021/12/01 11:50:57;;;;;;;1.73;0.35;;;;;;;;;;4933808;29;20532;-72
2021/12/01 11:53:54;;;;;;;2.33;0.43;;;;;;;;;;4933139;29;20044;-72
2021/12/01 11:56:26;;;;;;;1.75;0.40;;;;;;;;;;4933511;29;20500;-71
2021/12/01 11:58:57;;;;;;;4.18;0.50;;;;;;;;;;4934293;29;20556;-71
2021/12/01 12:01:40;;;;;;;2.20;0.70;;;;;;;;;;4934450;29;20537;-71
2021/12/01 12:04:24;;;;;;;1.85;0.60;;;;;;;;;;4934101;29;20540;-71
2021/12/01 12:06:54;;;;;;;2.10;0.83;;;;;;;;;;4939638;29;20158;-71
2021/12/01 12:09:24;;;;;;;1.35;0.30;;;;;;;;;;4950131;28;20430;-72
2021/12/01 12:11:55;;;;;;;1.42;0.47;;;;;;;;;;4934269;29;20055;-71
2021/12/01 12:14:27;;;;;;;3.15;0.88;;;;;;;;;;4918281;29;20161;-71
2021/12/01 12:17:21;;;;;;;1.48;0.50;;;;;;;;;;4930204;29;20112;-71
2021/12/01 12:19:55;;;;;;;1.40;0.40;;;;;;;;;;4933246;29;20517;-72
2021/12/01 12:22:30;;;;;;;3.42;0.50;;;;;;;;;;4930283;29;20054;-71
2021/12/01 12:25:00;;;;;;;2.63;0.93;;;;;;;;;;4933637;29;20353;-71
2021/12/01 12:27:35;;;;;;;1.92;0.65;;;;;;;;;;4916909;29;20062;-72
2021/12/01 12:30:08;;;;;;;1.27;0.35;;;;;;;;;;4931113;29;20135;-72
2021/12/01 12:32:37;;;;;;;1.03;0.33;;;;;;;;;;4933737;29;20099;-71
2021/12/01 12:35:11;;;;;;;2.38;0.50;;;;;;;;;;4933605;29;20043;-72
2021/12/01 12:37:41;;;;;;;1.38;0.20;;;;;;;;;;4933971;29;20090;-71
2021/12/01 12:40:13;;;;;;;2.70;0.70;;;;;;;;;;4933708;29;20060;-71
2021/12/01 12:43:16;;;;;;;1.73;0.40;;;;;;;;;;4932505;29;20467;-71
2021/12/01 12:46:02;;;;;;;3.70;0.60;;;;;;;;;;4861120;29;20084;-71
2021/12/01 12:48:32;;;;;;;2.28;0.50;;;;;;;;;;4885506;29;20138;-71
2021/12/01 12:51:26;;;;;;;2.13;0.50;;;;;;;;;;4894488;29;20048;-71
2021/12/01 12:54:14;;;;;;;1.50;0.47;;;;;;;;;;4878882;29;20110;-71
2021/12/01 12:56:45;;;;;;;1.88;0.45;;;;;;;;;;4878317;29;20049;-71
2021/12/01 12:59:34;;;;;;;1.73;0.40;;;;;;;;;;4878354;29;20059;-72
2021/12/01 13:02:25;;;;;;;3.08;0.50;;;;;;;;;;4875943;29;20416;-72
2021/12/01 13:05:01;;;;;;;1.90;0.50;;;;;;;;;;4862965;29;20054;-71
2021/12/01 13:07:34;;;;;;;1.70;0.40;;;;;;;;;;4861237;29;20571;-71
2021/12/01 13:10:05;;;;;;;9.25;0.50;;;;;;;;;;4894881;29;20056;-71
2021/12/01 13:12:44;;;;;;;2.70;0.50;;;;;;;;;;4877485;29;20057;-71
2021/12/01 13:15:19;;;;;;;1.90;0.43;;;;;;;;;;4877351;29;20087;-71
2021/12/01 13:17:49;;;;;;;2.92;0.50;;;;;;;;;;4913182;29;20491;-71
2021/12/01 13:20:25;;;;;;;2.30;0.50;;;;;;;;;;4932094;29;20091;-71
2021/12/01 13:23:15;;;;;;;1.98;0.65;;;;;;;;;;4933738;29;20052;-74
2021/12/01 13:25:54;;;;;;;1.73;0.43;;;;;;;;;;4932792;29;20103;-73
2021/12/01 13:28:32;;;;;;;6.53;0.75;;;;;;;;;;4899736;29;20052;-79
2021/12/01 13:31:02;;;;;;;1.05;0.20;;;;;;;;;;4932313;29;20412;-72
2021/12/01 13:33:35;;;;;;;1.92;0.60;;;;;;;;;;4929962;29;20055;-71
2021/12/01 13:36:18;;;;;;;1.95;0.65;;;;;;;;;;4931878;29;20048;-72
2021/12/01 13:38:47;;;;;;;2.27;0.70;;;;;;;;;;4931025;29;20067;-71
2021/12/01 13:41:17;;;;;;;1.20;0.32;;;;;;;;;;4948292;28;20107;-71
2021/12/01 13:43:47;;;;;;;4.90;0.65;;;;;;;;;;4932059;29;20058;-71
2021/12/01 13:46:18;;;;;;;1.60;0.40;;;;;;;;;;4932382;29;20062;-72
2021/12/01 13:48:51;;;;;;;2.40;0.50;;;;;;;;;;4932393;29;20774;-71
2021/12/01 13:51:22;;;;;;;2.20;0.70;;;;;;;;;;4928651;29;20120;-72
2021/12/01 13:53:52;;;;;;;4.43;0.70;;;;;;;;;;4932774;29;20058;-71
2021/12/01 13:56:23;;;;;;;2.35;0.85;;;;;;;;;;4930778;29;20059;-71
2021/12/01 13:58:58;;;;;;;2.10;0.52;;;;;;;;;;4914421;29;20123;-71
2021/12/01 14:01:27;;;;;;;3.45;0.50;;;;;;;;;;4933014;29;20455;-71
2021/12/01 14:03:57;;;;;;;2.07;0.70;;;;;;;;;;4934540;29;20126;-71
2021/12/01 14:06:33;;;;;;;1.70;0.60;;;;;;;;;;4932674;29;20054;-71
2021/12/01 14:09:11;;;;;;;3.55;0.80;;;;;;;;;;4932183;29;20056;-71
2021/12/01 14:11:46;;;;;;;3.67;0.80;;;;;;;;;;4931913;29;20443;-72
2021/12/01 14:14:17;;;;;;;2.60;0.90;;;;;;;;;;4936597;29;20044;-71
2021/12/01 14:16:48;;;;;;;2.00;0.80;;;;;;;;;;4936398;29;20486;-72
2021/12/01 14:19:18;;;;;;;2.00;0.63;;;;;;;;;;4935915;29;20040;-72
2021/12/01 14:21:50;;;;;;;1.90;0.80;;;;;;;;;;4935870;29;20047;-71
2021/12/01 14:24:22;;;;;;;1.60;0.50;;;;;;;;;;4943116;29;20044;-71
2021/12/01 14:26:52;;;;;;;2.50;0.70;;;;;;;;;;4936526;29;20495;-71
2021/12/01 14:29:22;;;;;;;1.87;0.60;;;;;;;;;;4932855;29;20055;-71
2021/12/01 14:31:57;;;;;;;1.75;0.50;;;;;;;;;;5191813;23;20436;-96
2021/12/01 14:34:29;;;;;;;2.58;0.80;;;;;;;;;;4908905;29;20122;-71
2021/12/01 14:37:00;;;;;;;2.05;0.57;;;;;;;;;;4915815;29;20048;-71
2021/12/01 14:39:30;;;;;;;2.13;0.77;;;;;;;;;;4917585;29;20134;-71
2021/12/01 14:42:00;;;;;;;1.67;0.60;;;;;;;;;;4895453;29;20055;-71
2021/12/01 14:44:36;;;;;;;1.50;0.50;;;;;;;;;;4919777;29;20060;-71
2021/12/01 14:47:06;;;;;;;5.10;0.73;;;;;;;;;;4917649;29;20079;-71
2021/12/01 14:49:39;;;;;;;3.45;0.73;;;;;;;;;;4923469;29;20569;-71
2021/12/01 14:52:09;;;;;;;1.92;0.70;;;;;;;;;;4920903;29;20439;-70
2021/12/01 14:54:40;;;;;;;2.33;0.97;;;;;;;;;;4918791;29;20134;-71
2021/12/01 14:57:11;;;;;;;1.75;0.60;;;;;;;;;;4919097;29;20044;-71
2021/12/01 14:59:40;;;;;;;2.53;0.70;;;;;;;;;;4920076;29;20051;-70
2021/12/01 15:02:16;;;;;;;2.17;0.80;;;;;;;;;;4919735;29;20461;-71
2021/12/01 15:05:04;;;;;;;2.15;0.70;;;;;;;;;;4934050;29;20402;-71
2021/12/01 15:07:35;;;;;;;1.90;0.80;;;;;;;;;;4936180;29;20066;-71
2021/12/01 15:10:11;;;;;;;3.13;1.10;;;;;;;;;;4936580;29;20058;-69
2021/12/01 15:12:45;;;;;;;2.38;0.70;;;;;;;;;;4919463;29;20059;-68
2021/12/01 15:15:27;;;;;;;2.50;0.73;;;;;;;;;;4917515;29;20047;-70
2021/12/01 15:18:01;;;;;;;4.45;0.77;;;;;;;;;;4935960;29;20048;-72
2021/12/01 15:20:31;;;;;;;2.33;0.77;;;;;;;;;;4935190;29;20060;-75
2021/12/01 15:23:04;;;;;;;3.15;0.80;;;;;;;;;;4937976;29;20079;-72
2021/12/01 15:25:34;;;;;;;4.22;1.00;;;;;;;;;;4936464;29;20043;-73
2021/12/01 15:28:04;;;;;;;2.30;0.90;;;;;;;;;;4932331;29;20052;-72
2021/12/01 15:30:33;;;;;;;2.90;0.70;;;;;;;;;;4919627;29;20055;-69
2021/12/01 15:33:09;;;;;;;3.63;0.90;;;;;;;;;;4913778;29;20071;-70
2021/12/01 15:35:38;;;;;;;2.47;0.93;;;;;;;;;;4931575;29;20051;-71
2021/12/01 15:38:08;;;;;;;8.63;0.90;;;;;;;;;;4915256;29;20047;-71
2021/12/01 15:40:37;;;;;;;2.05;0.80;;;;;;;;;;4917311;29;20110;-70
2021/12/01 15:43:06;;;;;;;1.70;0.60;;;;;;;;;;4933532;29;20048;-69
2021/12/01 15:45:36;;;;;;;3.83;0.67;;;;;;;;;;4931658;29;20064;-69
2021/12/01 15:48:05;;;;;;;3.95;0.75;;;;;;;;;;4929487;29;20047;-72
2021/12/01 15:50:35;;;;;;;6.72;0.95;;;;;;;;;;4914656;29;20106;-69
2021/12/01 15:53:03;;;;;;;2.55;0.90;;;;;;;;;;4913260;29;20051;-69
2021/12/01 15:55:33;;;;;;;2.88;1.05;;;;;;;;;;4893321;29;20055;-68
2021/12/01 15:58:02;;;;;;;2.20;0.70;;;;;;;;;;4914420;29;20180;-70
2021/12/01 16:00:31;;;;;;;5.13;0.80;;;;;;;;;;4936263;29;20048;-69
2021/12/01 16:03:00;;;;;;;3.55;1.10;;;;;;;;;;4917126;29;20051;-67
2021/12/01 16:05:30;;;;;;;1.73;0.52;;;;;;;;;;4943306;29;20066;-68
2021/12/01 16:08:02;;;;;;;2.63;0.80;;;;;;;;;;4935455;29;20040;-67
2021/12/01 16:10:31;;;;;;;2.30;0.93;;;;;;;;;;4935617;29;20040;-68
2021/12/01 16:13:04;;;;;;;2.13;0.70;;;;;;;;;;4929156;29;20051;-69
2021/12/01 16:15:34;;;;;;;2.75;1.02;;;;;;;;;;4936484;29;20458;-67
2021/12/01 16:18:03;;;;;;;3.42;0.93;;;;;;;;;;4904642;29;20048;-67
2021/12/01 16:20:34;;;;;;;6.25;0.90;;;;;;;;;;4921059;29;20043;-69
2021/12/01 16:23:04;;;;;;;4.33;0.67;;;;;;;;;;4915082;29;20052;-69
2021/12/01 16:25:51;;;;;;;3.55;0.70;;;;;;;;;;4927493;29;20056;-68
2021/12/01 16:28:22;;;;;;;2.63;0.55;;;;;;;;;;4906302;29;20060;-69
2021/12/01 16:30:52;;;;;;;1.52;0.40;;;;;;;;;;4905010;29;20055;-71
2021/12/01 16:33:24;;;;;;;2.13;0.45;;;;;;;;;;4918520;29;20375;-70
2021/12/01 16:35:53;;;;;;;1.43;0.27;;;;;;;;;;4931909;29;20048;-70
2021/12/01 16:38:22;;;;;;;3.40;0.60;;;;;;;;;;4934749;29;20047;-73
2021/12/01 16:40:51;;;;;;;4.53;0.68;;;;;;;;;;4934632;29;20056;-68
2021/12/01 16:43:22;;;;;;;1.73;0.52;;;;;;;;;;4934779;29;20056;-69
2021/12/01 16:45:52;;;;;;;1.40;0.38;;;;;;;;;;4917182;29;20065;-69
2021/12/01 16:48:20;;;;;;;1.03;0.20;;;;;;;;;;4931116;29;20052;-71
2021/12/01 16:50:50;;;;;;;1.85;0.50;;;;;;;;;;4929842;29;20445;-71
2021/12/01 16:53:19;;;;;;;1.10;0.20;;;;;;;;;;4902483;29;20048;-65
2021/12/01 16:55:48;;;;;;;1.85;0.30;;;;;;;;;;4932956;29;20048;-65
2021/12/01 16:58:17;;;;;;;1.80;0.70;;;;;;;;;;4917067;29;20062;-65
2021/12/01 17:00:47;;;;;;;2.00;0.83;;;;;;;;;;4934559;29;20216;-64
2021/12/01 17:03:23;;;;;;;2.13;0.73;;;;;;;;;;4937914;29;20533;-70
2021/12/01 17:05:55;;;;;;;1.88;0.50;;;;;;;;;;4916149;29;20466;-71
2021/12/01 17:08:39;;;;;;;1.50;0.30;;;;;;;;;;4917927;29;20079;-76
2021/12/01 17:11:09;;;;;;;1.50;0.40;;;;;;;;;;4931324;29;20071;-73
2021/12/01 17:13:39;;;;;;;1.43;0.50;;;;;;;;;;4935257;29;20412;-75
2021/12/01 17:16:14;;;;;;;3.13;0.93;;;;;;;;;;4922571;29;20051;-77
2021/12/01 17:18:47;;;;;;;1.55;0.55;;;;;;;;;;4904010;29;20071;-75
2021/12/01 17:21:17;;;;;;;2.20;0.50;;;;;;;;;;4918832;29;20451;-75
2021/12/01 17:23:47;;;;;;;2.35;0.60;;;;;;;;;;4917585;29;20079;-82
2021/12/01 17:26:18;;;;;;;2.00;0.40;;;;;;;;;;4917598;29;20067;-76
2021/12/01 17:28:52;;;;;;;1.63;0.40;;;;;;;;;;4915695;29;20051;-76
2021/12/01 17:31:23;;;;;;;1.25;0.20;;;;;;;;;;4917620;29;20051;-79
2021/12/01 17:33:54;;;;;;;3.55;0.70;;;;;;;;;;4903022;29;20103;-76
2021/12/01 17:36:25;;;;;;;1.95;0.30;;;;;;;;;;4917192;29;20134;-73
2021/12/01 17:38:54;;;;;;;1.70;0.60;;;;;;;;;;4916845;29;20090;-76
2021/12/01 17:41:23;;;;;;;3.78;0.75;;;;;;;;;;4917082;29;20047;-75
2021/12/01 17:43:53;;;;;;;1.67;0.50;;;;;;;;;;4917334;29;20060;-73
2021/12/01 17:46:22;;;;;;;1.40;0.35;;;;;;;;;;4918920;29;20052;-72
2021/12/01 17:48:51;;;;;;;1.98;0.70;;;;;;;;;;4940564;29;20047;-74
2021/12/01 17:51:22;;;;;;;4.33;0.40;;;;;;;;;;4926179;29;20047;-75
2021/12/01 17:53:52;;;;;;;1.30;0.40;;;;;;;;;;4934970;29;20460;-74
2021/12/01 17:56:22;;;;;;;1.40;0.32;;;;;;;;;;4936294;29;20107;-71
2021/12/01 17:58:51;;;;;;;1.63;0.43;;;;;;;;;;4923767;29;20052;-73
2021/12/01 18:01:20;;;;;;;1.75;0.50;;;;;;;;;;4921962;29;20138;-78
2021/12/01 18:03:50;;;;;;;1.40;0.40;;;;;;;;;;5089551;23;20067;-83
2021/12/01 18:06:47;;;;;;;1.30;0.30;;;;;;;;;;4933711;29;20055;-83
2021/12/01 18:09:16;;;;;;;0.93;0.20;;;;;;;;;;4917937;29;20378;-84
2021/12/01 18:11:45;;;;;;;2.17;0.40;;;;;;;;;;4944172;29;20075;-85
2021/12/01 18:14:14;;;;;;;2.17;0.60;;;;;;;;;;4937211;29;20047;-83
2021/12/01 18:19:42;;;;;;;2.25;0.75;;;;;;;;;;4929761;29;20048;-84
2021/12/01 18:22:12;;;;;;;1.98;0.60;;;;;;;;;;4916146;29;20131;-84
2021/12/01 18:24:46;;;;;;;1.10;0.30;;;;;;;;;;4915884;29;20059;-84
2021/12/01 18:27:15;;;;;;;1.40;0.30;;;;;;;;;;4926467;29;20059;-84
2021/12/01 18:29:44;;;;;;;1.60;0.33;;;;;;;;;;4938136;29;20052;-82
2021/12/01 18:32:13;;;;;;;1.83;0.38;;;;;;;;;;4936302;29;20102;-84
2021/12/01 18:34:42;;;;;;;0.88;0.20;;;;;;;;;;4920834;29;20051;-84
2021/12/01 18:37:10;;;;;;;3.35;0.47;;;;;;;;;;4921842;29;20164;-87
2021/12/01 18:39:40;;;;;;;1.27;0.43;;;;;;;;;;4937153;29;20047;-96
2021/12/01 18:42:09;;;;;;;1.37;0.47;;;;;;;;;;4938167;29;20340;-88
2021/12/01 18:44:40;;;;;;;1.83;0.40;;;;;;;;;;4918777;29;20119;-90
2021/12/01 18:47:09;;;;;;;1.77;0.70;;;;;;;;;;4927240;29;20071;-84
2021/12/01 18:49:38;;;;;;;3.58;0.45;;;;;;;;;;4934114;29;20097;-83
2021/12/01 18:52:07;;;;;;;1.38;0.20;;;;;;;;;;4917091;29;20082;-82
2021/12/01 18:54:36;;;;;;;1.60;0.40;;;;;;;;;;4932383;29;20122;-83
2021/12/01 18:57:17;;;;;;;1.33;0.40;;;;;;;;;;4948137;28;20048;-83
2021/12/01 18:59:47;;;;;;;6.88;1.30;;;;;;;;;;4934978;29;20075;-82
2021/12/01 19:02:18;;;;;;;2.15;0.45;;;;;;;;;;4931860;29;20459;-82
2021/12/01 19:04:48;;;;;;;1.17;0.20;;;;;;;;;;4951137;29;20067;-82